Cincinnati, Iowa
Current Conditions -  °F | °C
As of 5:50 AM on Sunday 21 Dec 2014 (Local Time) from KTVK Reporting Station
Broken Clouds Broken Clouds  
Wind Chill: 30°   Ceiling: 2000
Heat Index: 37°   Visibility: 10mi
Dew Point: 37°   Wind: 10mph
Humidity: 100%   Direction: 160°SSE
Pressure: 30.07"   Gusts: NA
Location:  40.63°N, 92.92°W
Report Text: KTVK 211150Z AUTO 16009KT 10SM BKN020 03/03 A3007 RMK AO2
Loading
Personal Weather Stations






























Interactive Weather Map New forecast layout! Learn more

10-Day Weather Forecast

Advertisements
Track Severe Weather on mobile